Shawnee Mission, KS (66282)

2:33 PM CDT on May 28, 2015 (GMT -0500)
MorningView | | Change Station
CLOSE
Current Station
Personal Weather Station
Location: Overland Park, KS
Elevation: 965 ft
Nearby Weather Stations

Elev 965 ft 38.95 °N, 94.69 °W | Updated 16 seconds ago

Partly Cloudy
Partly Cloudy
69.3 °F
Feels Like 69.3 °F
N
0.0
Wind Variable Wind from SSE
Gusts 0.0 mph

Today
High -- | Low -- °F
--% Chance of Precip.
Yesterday
High -- | Low -- °F
Precip. -- in
5:57 AM 8:35 PM
Waxing Gibbous, 78% visible
Pressure 30.06 in
Visibility 8.0 miles
Clouds Scattered Clouds 2000 ft
Scattered Clouds 3200 ft
Overcast 10000 ft
Dew Point 66 °F
Humidity 89%
Rainfall 0.48 in
Snow Depth Not available.
UV 4 out of 12
Pollen 7.20 out of 12
Air Quality Not available.
Flu Activity No Activity
METAR KOJC 281853Z 21006KT 8SM -RA SCT020 SCT032 OVC100 20/19 A3008 RMK AO2 PK WND 19031/1754 LTG DSNT SE TSE13 SLP179 P0029 T02000189

More Conditions Fewer Conditions

Pressure 30.06 in
Visibility 8.0 miles
Clouds Scattered Clouds 2000 ft
Scattered Clouds 3200 ft
Overcast 10000 ft
Dew Point 66 °F
Humidity 89%
Rainfall 0.48 in
Snow Depth Not available.
UV 4 out of 12
Pollen 7.20 out of 12
Air Quality Not available.
Flu Activity No Activity
METAR KOJC 281853Z 21006KT 8SM -RA SCT020 SCT032 OVC100 20/19 A3008 RMK AO2 PK WND 19031/1754 LTG DSNT SE TSE13 SLP179 P0029 T02000189

More Conditions Fewer Conditions

10-Day Weather Forecast

Almanac

Astronomy

May. 28, 2015 Rise Set
Actual Time
Civil Twilight
Nautical Twilight
Astronomical Twilight
Moon
Length of Visible Light
Length of Day
Tomorrow will be .
, % of the Moon is Illuminated

Today's Extremes

State Highs State Lows

Community

WunderPhotos

Upload Photos

1,825,040 photos uploaded!

WunderBlogs® & News

Nearby

Air Quality

  Air Quality AQ Index Pollutant
Not available.

Snow Depth

Station Depth Elevation

Earthquake Activity

City Distance Mag. Time & Date
Minimum magnitude displayed is 2.5.

Coastal Water Temperatures

Place Temperature

Stations

Nearby Weather Stations

Station Location Temp. Windchill Dew Point Humidity Wind Precip. Elev Updated Type